createdAt,value
2023-03-22T00:01:17.280Z,100057.53
2023-03-22T00:03:45.618Z,100052.19
2023-03-22T00:06:13.951Z,100048.97
2023-03-22T00:08:41.803Z,100051.88
2023-03-22T00:11:13.760Z,100044.47
2023-03-22T00:13:42.974Z,100041.72
2023-03-22T00:16:11.409Z,100035.56
2023-03-22T00:18:39.704Z,100033.16
2023-03-22T00:21:11.738Z,100027.81
2023-03-22T00:23:40.164Z,100034.63
2023-03-22T00:26:08.343Z,100031.41
2023-03-22T00:28:37.891Z,100018.91
2023-03-22T00:31:09.352Z,100017.53
2023-03-22T00:33:38.130Z,100008.72
2023-03-22T00:36:08.544Z,100000.19
2023-03-22T00:38:42.919Z,99995.94
2023-03-22T00:41:13.873Z,100005.53
2023-03-22T00:43:43.031Z,100000.91
2023-03-22T00:46:11.205Z,99992.94
2023-03-22T00:48:39.718Z,100004.88
2023-03-22T00:51:08.694Z,99988.91
2023-03-22T00:53:36.988Z,99984.06
2023-03-22T00:56:05.972Z,99980.50
2023-03-22T00:58:33.718Z,99977.25
2023-03-22T01:01:02.898Z,99978.56
2023-03-22T01:03:31.451Z,99970.81
2023-03-22T01:05:59.259Z,99969.44
2023-03-22T01:08:37.413Z,99968.38
2023-03-22T01:11:05.810Z,99962.97
2023-03-22T01:13:33.548Z,99958.69
2023-03-22T01:16:03.036Z,99951.53
2023-03-22T01:18:30.777Z,99940.53
2023-03-22T01:20:59.792Z,99934.19
2023-03-22T01:23:28.081Z,99936.53
2023-03-22T01:25:55.740Z,99924.50
2023-03-22T01:28:26.402Z,99932.72
2023-03-22T01:30:55.441Z,99930.66
2023-03-22T01:33:24.592Z,99922.59
2023-03-22T01:35:52.380Z,99919.59
2023-03-22T01:38:20.976Z,99916.34
2023-03-22T01:40:48.641Z,99928.63
2023-03-22T01:43:18.115Z,99921.91
2023-03-22T01:45:48.348Z,99911.03
2023-03-22T01:48:21.081Z,99912.06
2023-03-22T01:50:57.334Z,99913.47
2023-03-22T01:53:27.303Z,99915.31
2023-03-22T01:55:58.598Z,99903.03
2023-03-22T01:58:26.638Z,99906.75
2023-03-22T02:00:55.083Z,99914.16
2023-03-22T02:03:39.591Z,99902.72
2023-03-22T02:06:09.431Z,99919.41
2023-03-22T02:08:37.140Z,99905.75
2023-03-22T02:11:06.480Z,99910.19
2023-03-22T02:13:52.936Z,99895.03
2023-03-22T02:16:33.822Z,99891.22
2023-03-22T02:19:47.926Z,99892.03
2023-03-22T02:22:39.360Z,99881.81
2023-03-22T02:25:33.449Z,99887.78
2023-03-22T02:28:14.850Z,99881.41
2023-03-22T02:31:09.856Z,99886.16
2023-03-22T02:33:56.569Z,99883.03
2023-03-22T02:37:00.218Z,99876.88
2023-03-22T02:39:37.100Z,99875.53
2023-03-22T02:42:22.610Z,99861.09
2023-03-22T02:45:01.516Z,99867.56
2023-03-22T02:47:38.518Z,99854.25
2023-03-22T02:50:13.169Z,99838.56
2023-03-22T02:52:45.272Z,99837.75
2023-03-22T02:55:19.666Z,99829.53
2023-03-22T02:57:51.268Z,99828.94
2023-03-22T03:00:20.985Z,99826.06
2023-03-22T03:02:49.838Z,99823.97
2023-03-22T03:05:19.869Z,99825.28
2023-03-22T03:07:53.903Z,99827.94
2023-03-22T03:10:24.080Z,99828.81
2023-03-22T03:12:51.823Z,99823.25
2023-03-22T03:15:21.560Z,99827.50
2023-03-22T03:18:02.192Z,99826.94
2023-03-22T03:20:40.266Z,99828.22
2023-03-22T03:23:24.415Z,99820.88
2023-03-22T03:26:02.039Z,99827.41
2023-03-22T03:28:39.159Z,99834.72
2023-03-22T03:31:19.477Z,99833.25
2023-03-22T03:33:56.628Z,99830.13
2023-03-22T03:36:27.706Z,99836.25
2023-03-22T03:38:58.204Z,99837.06
2023-03-22T03:41:30.426Z,99823.97
2023-03-22T03:44:00.526Z,99826.66
2023-03-22T03:46:29.387Z,99828.50
2023-03-22T03:48:59.473Z,99830.25
2023-03-22T03:51:28.502Z,99825.06
2023-03-22T03:53:56.405Z,99825.06
2023-03-22T03:56:24.844Z,99821.09
2023-03-22T03:58:53.888Z,99829.22
2023-03-22T04:01:21.670Z,99828.75
2023-03-22T04:03:51.223Z,99826.00
2023-03-22T04:06:18.911Z,99820.91
2023-03-22T04:08:46.575Z,99816.75
2023-03-22T04:11:14.870Z,99817.25
2023-03-22T04:13:42.534Z,99824.88
2023-03-22T04:16:11.934Z,99832.03
2023-03-22T04:18:40.406Z,99822.66
2023-03-22T04:21:08.516Z,99821.53
2023-03-22T04:23:36.210Z,99818.88
2023-03-22T04:26:04.318Z,99814.16
2023-03-22T04:28:33.776Z,99811.72
2023-03-22T04:31:04.406Z,99810.44
2023-03-22T04:33:39.226Z,99820.00
2023-03-22T04:36:10.848Z,99823.81
2023-03-22T04:38:40.068Z,99812.28
2023-03-22T04:41:08.134Z,99814.94
2023-03-22T04:43:36.102Z,99814.69
2023-03-22T04:46:03.989Z,99815.75
2023-03-22T04:48:33.095Z,99815.41
2023-03-22T04:51:04.465Z,99815.41
2023-03-22T04:53:32.168Z,99804.78
2023-03-22T04:56:00.086Z,99816.09
2023-03-22T04:58:29.039Z,99818.66
2023-03-22T05:00:56.711Z,99810.59
2023-03-22T05:03:24.367Z,99822.41
2023-03-22T05:05:55.685Z,99817.44
2023-03-22T05:08:25.845Z,99822.41
2023-03-22T05:10:54.251Z,99812.47
2023-03-22T05:13:22.904Z,99825.31
2023-03-22T05:15:51.726Z,99827.38
2023-03-22T05:18:20.752Z,99827.13
2023-03-22T05:20:49.538Z,99825.50
2023-03-22T05:23:19.358Z,99820.19
2023-03-22T05:25:47.161Z,99823.44
2023-03-22T05:28:15.789Z,99820.78
2023-03-22T05:30:43.997Z,99821.81
2023-03-22T05:33:11.716Z,99822.66
2023-03-22T05:35:41.938Z,99827.25
2023-03-22T05:38:10.419Z,99836.25
2023-03-22T05:40:39.779Z,99841.00
2023-03-22T05:43:07.986Z,99837.28
2023-03-22T05:45:37.773Z,99831.31
2023-03-22T05:48:05.933Z,99836.84
2023-03-22T05:50:34.710Z,99842.59
2023-03-22T05:53:03.358Z,99839.69
2023-03-22T05:55:32.027Z,99838.91
2023-03-22T05:58:02.784Z,99842.34
2023-03-22T06:00:31.925Z,99824.13
2023-03-22T06:03:04.005Z,99841.66
2023-03-22T06:05:32.576Z,99837.63
2023-03-22T06:08:00.835Z,99831.84
2023-03-22T06:10:28.793Z,99834.72
2023-03-22T06:12:56.546Z,99835.78
2023-03-22T06:15:25.733Z,99830.22
2023-03-22T06:17:53.880Z,99839.00
2023-03-22T06:20:21.537Z,99838.34
2023-03-22T06:22:49.213Z,99835.09
2023-03-22T06:25:17.531Z,99839.69
2023-03-22T06:27:45.245Z,99824.34
2023-03-22T06:30:13.431Z,99838.56
2023-03-22T06:32:42.976Z,99831.53
2023-03-22T06:35:11.012Z,99838.91
2023-03-22T06:37:38.705Z,99828.28
2023-03-22T06:40:07.693Z,99837.28
2023-03-22T06:42:36.943Z,99821.69
2023-03-22T06:45:06.070Z,99819.16
2023-03-22T06:47:34.198Z,99833.13
2023-03-22T06:50:03.249Z,99822.50
2023-03-22T06:52:30.933Z,99825.50
2023-03-22T06:54:59.205Z,99819.97
2023-03-22T06:57:26.921Z,99828.03
2023-03-22T06:59:54.661Z,99822.25
2023-03-22T07:02:22.798Z,99825.94
2023-03-22T07:04:50.561Z,99825.47
2023-03-22T07:07:19.659Z,99822.56
2023-03-22T07:09:47.973Z,99818.41
2023-03-22T07:12:15.657Z,99817.16
2023-03-22T07:14:43.597Z,99823.47
2023-03-22T07:17:13.035Z,99821.50
2023-03-22T07:19:41.824Z,99820.00
2023-03-22T07:22:09.810Z,99820.09
2023-03-22T07:24:50.334Z,99815.91
2023-03-22T07:27:23.783Z,99824.13
2023-03-22T07:29:52.007Z,99830.34
2023-03-22T07:32:21.280Z,99819.09
2023-03-22T07:34:48.990Z,99812.97
2023-03-22T07:37:17.273Z,99810.50
2023-03-22T07:39:46.336Z,99805.88
2023-03-22T07:42:14.022Z,99817.13
2023-03-22T07:44:42.577Z,99807.16
2023-03-22T07:47:10.466Z,99812.72
2023-03-22T07:49:38.459Z,99810.94
2023-03-22T07:52:07.072Z,99818.78
2023-03-22T07:54:34.894Z,99813.75
2023-03-22T07:57:04.029Z,99844.41
2023-03-22T07:59:32.542Z,99841.50
2023-03-22T08:02:00.422Z,99849.88
2023-03-22T08:04:28.155Z,99854.88
2023-03-22T08:06:59.066Z,99856.25
2023-03-22T08:09:26.947Z,99848.59
2023-03-22T08:11:54.636Z,99839.38
2023-03-22T08:14:35.443Z,99846.19
2023-03-22T08:17:04.185Z,99838.19
2023-03-22T08:19:33.486Z,99835.28
2023-03-22T08:22:01.431Z,99841.09
2023-03-22T08:24:29.420Z,99835.47
2023-03-22T08:26:58.128Z,99832.53
2023-03-22T08:29:27.671Z,99834.22
2023-03-22T08:31:56.031Z,99835.22
2023-03-22T08:34:23.778Z,99835.78
2023-03-22T08:36:51.438Z,99841.66
2023-03-22T08:39:19.147Z,99837.41
2023-03-22T08:41:47.370Z,99834.81
2023-03-22T08:44:15.050Z,99819.66
2023-03-22T08:46:44.310Z,99833.38
2023-03-22T08:49:12.918Z,99827.72
2023-03-22T08:51:40.957Z,99824.41
2023-03-22T08:54:08.976Z,99821.56
2023-03-22T08:56:38.120Z,99810.84
2023-03-22T08:59:06.588Z,99811.97
2023-03-22T09:01:35.644Z,99808.25
2023-03-22T09:04:05.951Z,99805.69
2023-03-22T09:06:34.154Z,99808.66
2023-03-22T09:09:02.100Z,99810.78
2023-03-22T09:11:30.139Z,99807.59
2023-03-22T09:13:58.051Z,99803.34
2023-03-22T09:16:26.184Z,99808.84
2023-03-22T09:18:54.277Z,99809.44
2023-03-22T09:21:23.697Z,99809.44
2023-03-22T09:23:51.870Z,99807.63
2023-03-22T09:26:20.243Z,99805.75
2023-03-22T09:28:48.310Z,99810.28
2023-03-22T09:31:17.461Z,99807.19
2023-03-22T09:33:47.014Z,99807.44
2023-03-22T09:36:14.744Z,99808.84
2023-03-22T09:38:43.808Z,99803.78
2023-03-22T09:41:15.567Z,99798.44
2023-03-22T09:43:46.797Z,99818.94
2023-03-22T09:46:18.309Z,99802.66
2023-03-22T09:48:49.594Z,99803.22
2023-03-22T09:51:34.443Z,99808.22
2023-03-22T09:54:03.666Z,99815.97
2023-03-22T09:56:33.097Z,99811.94
2023-03-22T09:59:07.396Z,99817.50
2023-03-22T10:01:44.508Z,99813.50
2023-03-22T10:04:37.917Z,99812.94
2023-03-22T10:07:11.692Z,99802.78
2023-03-22T10:09:51.161Z,99807.03
2023-03-22T10:12:27.694Z,99809.22
2023-03-22T10:15:04.352Z,99809.69
2023-03-22T10:17:33.088Z,99811.56
2023-03-22T10:20:06.653Z,99808.91
2023-03-22T10:22:37.802Z,99804.06
2023-03-22T10:25:09.902Z,99806.16
2023-03-22T10:27:38.658Z,99799.50
2023-03-22T10:30:11.845Z,99806.16
2023-03-22T10:32:57.220Z,99800.03
2023-03-22T10:35:26.696Z,99808.28
2023-03-22T10:37:56.886Z,99808.75
2023-03-22T10:40:28.794Z,99805.84
2023-03-22T10:42:58.927Z,99797.06
2023-03-22T10:45:28.720Z,99794.88
2023-03-22T10:48:01.033Z,99799.06
2023-03-22T10:50:33.739Z,99811.31
2023-03-22T10:53:05.806Z,99813.44
2023-03-22T10:55:40.750Z,99806.19
2023-03-22T10:58:16.663Z,99803.75
2023-03-22T11:00:49.503Z,99796.81
2023-03-22T11:03:32.183Z,99784.56
2023-03-22T11:06:03.500Z,99766.75
2023-03-22T11:08:40.354Z,99755.38
2023-03-22T11:11:17.942Z,99747.13
2023-03-22T11:13:51.756Z,99748.56
2023-03-22T11:16:20.514Z,99764.63
2023-03-22T11:18:48.772Z,99759.38
2023-03-22T11:21:18.643Z,99769.50
2023-03-22T11:23:55.684Z,99768.50
2023-03-22T11:26:30.968Z,99764.84
2023-03-22T11:29:07.864Z,99770.41
2023-03-22T11:31:57.458Z,99763.72
2023-03-22T11:34:27.416Z,99769.50
2023-03-22T11:36:57.050Z,99773.88
2023-03-22T11:39:28.828Z,99773.31
2023-03-22T11:42:01.547Z,99754.84
2023-03-22T11:44:35.014Z,99774.91
2023-03-22T11:47:05.504Z,99776.75
2023-03-22T11:49:41.283Z,99767.91
2023-03-22T11:52:13.013Z,99775.41
2023-03-22T11:54:43.183Z,99780.75
2023-03-22T11:57:17.390Z,99769.50
2023-03-22T11:59:51.786Z,99780.16
2023-03-22T12:02:25.067Z,99764.69
2023-03-22T12:05:01.236Z,99756.72
2023-03-22T12:07:31.337Z,99758.31
2023-03-22T12:10:04.214Z,99755.72
2023-03-22T12:12:38.560Z,99743.72
2023-03-22T12:15:14.832Z,99734.97
2023-03-22T12:17:48.561Z,99737.88
2023-03-22T12:20:23.408Z,99740.63
2023-03-22T12:22:55.311Z,99742.53
2023-03-22T12:25:26.805Z,99735.09
2023-03-22T12:27:59.231Z,99729.75
2023-03-22T12:30:29.819Z,99744.47
2023-03-22T12:33:02.929Z,99754.84
2023-03-22T12:35:34.860Z,99772.25
2023-03-22T12:38:12.137Z,99765.56
2023-03-22T12:40:42.965Z,99758.03
2023-03-22T12:43:17.959Z,99754.56
2023-03-22T12:45:49.752Z,99756.97
2023-03-22T12:48:21.670Z,99748.72
2023-03-22T12:50:53.401Z,99755.59
2023-03-22T12:53:23.553Z,99748.97
2023-03-22T12:55:52.363Z,99748.41
2023-03-22T12:58:25.058Z,99748.97
2023-03-22T13:00:58.003Z,99738.88
2023-03-22T13:03:40.880Z,99748.59
2023-03-22T13:06:33.701Z,99738.00
2023-03-22T13:09:18.363Z,99726.50
2023-03-22T13:11:48.748Z,99736.59
2023-03-22T13:14:50.461Z,99731.56
2023-03-22T13:17:47.016Z,99737.41
2023-03-22T13:20:34.608Z,99716.38
2023-03-22T13:23:11.817Z,99738.53
2023-03-22T13:25:41.920Z,99728.78
2023-03-22T13:28:27.242Z,99725.84
2023-03-22T13:30:58.636Z,99720.56
2023-03-22T13:33:30.362Z,99719.38
2023-03-22T13:36:00.657Z,99714.88
2023-03-22T13:38:31.709Z,99725.91
2023-03-22T13:41:03.749Z,99728.84
2023-03-22T13:43:35.059Z,99728.84
2023-03-22T13:46:29.114Z,99731.28
2023-03-22T13:49:20.613Z,99721.97
2023-03-22T13:51:50.426Z,99723.34
2023-03-22T13:54:24.044Z,99720.13
2023-03-22T13:56:57.118Z,99720.13
2023-03-22T13:59:31.254Z,99715.31
2023-03-22T14:02:05.574Z,99714.00
2023-03-22T14:04:40.781Z,99710.78
2023-03-22T14:07:20.964Z,99708.91
2023-03-22T14:09:52.308Z,99709.41
2023-03-22T14:12:24.080Z,99706.53
2023-03-22T14:14:56.775Z,99707.06
2023-03-22T14:17:35.371Z,99703.66
2023-03-22T14:20:10.396Z,99696.16
